Terminal Aerodrome Forecast
Issued by NWS

Home | Current Version | Previous Version | Graphics & Text | Print | Product List | Glossary On
Versions: 1 2 3 4 5 6 7 8 9 10 11 12 13 14 15 16 17 18 19
917
FTUS43 KIWX 060249 AAA
TAFSBN
TAF AMD
KSBN 060249Z 0603/0624 26005KT P6SM SCT030 OVC100
      TEMPO 0603/0606 BKN030
     FM060600 22007KT P6SM SCT035 BKN080
     FM061600 24012KT P6SM SCT050=

USA.gov is the U.S. government's official web portal to all federal, state and local government web resources and services.